Boykin, South Carolina
Current Conditions -  °F | °C
As of 9:58 PM on Tuesday 21 Oct 2014 (Local Time) from KSSC Reporting Station
Few Clouds Few Clouds  
Wind Chill: 19°   Ceiling: Unl
Heat Index: 19°   Visibility: 10mi
Dew Point: 11°   Wind: 9mph
Humidity: 59%   Direction: 320°NW
Pressure: 29.92"   Gusts: NA
Location:  34.1106°N, 80.4967°W
Report Text: KSSC 220158Z AUTO 32008KT 10SM FEW075 19/11 A2992 RMK AO2 SLP132 T01870106 $
Loading
Personal Weather Stations






























Interactive Weather Map
Tropical Storm Tracking
New forecast layout! Learn more

10-Day Weather Forecast

Advertisements
Track Severe Weather on mobile